createdAt,value
2017-11-25T00:01:00.732Z,9.47
2017-11-25T00:03:28.312Z,15.17
2017-11-25T00:05:55.938Z,13.33
2017-11-25T00:08:23.516Z,13.30
2017-11-25T00:10:51.571Z,11.17
2017-11-25T00:13:19.142Z,16.47
2017-11-25T00:15:46.738Z,14.07
2017-11-25T00:18:15.128Z,19.37
2017-11-25T00:20:42.704Z,16.60
2017-11-25T00:23:10.312Z,15.47
2017-11-25T00:25:37.887Z,14.87
2017-11-25T00:28:05.822Z,12.10
2017-11-25T00:30:33.570Z,12.17
2017-11-25T00:33:01.390Z,11.67
2017-11-25T00:35:29.785Z,10.00
2017-11-25T00:37:57.359Z,7.30
2017-11-25T00:40:25.159Z,9.83
2017-11-25T00:42:52.827Z,7.50
2017-11-25T00:45:20.706Z,6.90
2017-11-25T00:47:48.289Z,7.57
2017-11-25T00:50:15.844Z,5.90
2017-11-25T00:52:44.205Z,8.50
2017-11-25T00:55:11.772Z,7.03
2017-11-25T00:57:40.157Z,7.83
2017-11-25T01:00:07.734Z,7.30
2017-11-25T01:02:35.351Z,7.00
2017-11-25T01:05:02.923Z,11.73
2017-11-25T01:07:30.828Z,8.10
2017-11-25T01:09:58.610Z,7.50
2017-11-25T01:12:26.170Z,6.53
2017-11-25T01:14:53.759Z,6.73
2017-11-25T01:17:21.355Z,7.73
2017-11-25T01:19:48.966Z,7.30
2017-11-25T01:22:16.559Z,9.37
2017-11-25T01:24:47.359Z,9.63
2017-11-25T01:27:14.987Z,7.13
2017-11-25T01:29:42.661Z,9.20
2017-11-25T01:32:10.285Z,8.10
2017-11-25T01:34:37.835Z,8.00
2017-11-25T01:37:05.460Z,9.90
2017-11-25T01:39:33.023Z,10.53
2017-11-25T01:42:00.987Z,8.47
2017-11-25T01:44:28.556Z,8.50
2017-11-25T01:46:56.121Z,7.93
2017-11-25T01:49:23.715Z,9.73
2017-11-25T01:51:51.288Z,13.90
2017-11-25T01:54:18.885Z,9.90
2017-11-25T01:56:46.450Z,9.40
2017-11-25T01:59:14.410Z,9.93
2017-11-25T02:01:41.991Z,11.03
2017-11-25T02:04:09.560Z,11.70
2017-11-25T02:06:37.144Z,12.40
2017-11-25T02:09:04.702Z,11.10
2017-11-25T02:11:33.066Z,11.97
2017-11-25T02:14:01.399Z,10.83
2017-11-25T02:16:29.273Z,13.33
2017-11-25T02:18:56.998Z,15.93
2017-11-25T02:21:24.555Z,11.97
2017-11-25T02:23:52.160Z,13.73
2017-11-25T02:26:19.701Z,7.90
2017-11-25T02:28:47.294Z,12.77
2017-11-25T02:31:15.094Z,13.20
2017-11-25T02:33:43.924Z,10.60
2017-11-25T02:36:11.496Z,8.17
2017-11-25T02:38:39.054Z,10.80
2017-11-25T02:41:06.652Z,10.80
2017-11-25T02:43:34.205Z,9.90
2017-11-25T02:46:01.823Z,8.80
2017-11-25T02:48:29.379Z,7.70
2017-11-25T02:50:57.349Z,8.57
2017-11-25T02:53:24.925Z,10.30
2017-11-25T02:55:52.662Z,7.90
2017-11-25T02:58:20.255Z,9.73
2017-11-25T03:00:47.815Z,10.40
2017-11-25T03:03:15.414Z,12.80
2017-11-25T03:05:43.200Z,8.80
2017-11-25T03:08:11.186Z,11.67
2017-11-25T03:10:38.746Z,9.33
2017-11-25T03:13:06.304Z,11.20
2017-11-25T03:15:33.914Z,12.73
2017-11-25T03:18:01.487Z,10.77
2017-11-25T03:20:29.851Z,11.90
2017-11-25T03:22:57.452Z,12.70
2017-11-25T03:25:25.067Z,11.17
2017-11-25T03:27:53.402Z,11.03
2017-11-25T03:30:20.981Z,14.70
2017-11-25T03:32:48.599Z,12.27
2017-11-25T03:35:16.170Z,14.73
2017-11-25T03:37:43.764Z,11.70
2017-11-25T03:40:12.110Z,14.37
2017-11-25T03:42:40.113Z,16.87
2017-11-25T03:45:07.730Z,16.43
2017-11-25T03:47:35.318Z,16.60
2017-11-25T03:50:03.127Z,16.13
2017-11-25T03:52:31.512Z,16.87
2017-11-25T03:54:59.115Z,16.83
2017-11-25T03:57:26.670Z,16.57
2017-11-25T03:59:54.522Z,15.27
2017-11-25T04:02:22.100Z,19.53
2017-11-25T04:04:49.711Z,16.80
2017-11-25T04:07:18.093Z,17.70
2017-11-25T04:09:45.674Z,17.40
2017-11-25T04:12:14.047Z,16.60
2017-11-25T04:14:41.621Z,17.57
2017-11-25T04:17:09.614Z,21.63
2017-11-25T04:19:37.211Z,22.67
2017-11-25T04:22:04.803Z,20.80
2017-11-25T04:24:32.416Z,21.37
2017-11-25T04:27:00.002Z,16.67
2017-11-25T04:29:27.622Z,22.13
2017-11-25T04:31:55.182Z,18.83
2017-11-25T04:34:23.241Z,22.40
2017-11-25T04:36:50.822Z,19.47
2017-11-25T04:39:18.401Z,21.73
2017-11-25T04:41:46.783Z,22.10
2017-11-25T04:44:14.353Z,26.83
2017-11-25T04:46:42.727Z,25.37
2017-11-25T04:49:10.299Z,29.63
2017-11-25T04:51:38.981Z,25.00
2017-11-25T04:54:07.492Z,23.77
2017-11-25T04:56:35.055Z,29.80
2017-11-25T04:59:02.734Z,29.00
2017-11-25T05:01:30.291Z,28.83
2017-11-25T05:03:57.894Z,26.80
2017-11-25T05:06:26.234Z,31.63
2017-11-25T05:08:54.193Z,31.70
2017-11-25T05:11:21.746Z,35.93
2017-11-25T05:13:49.314Z,41.40
2017-11-25T05:16:17.051Z,37.07
2017-11-25T05:18:44.632Z,39.03
2017-11-25T05:21:12.230Z,33.97
2017-11-25T05:23:39.805Z,37.97
2017-11-25T05:26:08.632Z,38.93
2017-11-25T05:28:36.225Z,44.67
2017-11-25T05:31:03.790Z,38.80
2017-11-25T05:33:31.398Z,48.83
2017-11-25T05:35:58.967Z,39.23
2017-11-25T05:38:26.591Z,49.00
2017-11-25T05:40:54.919Z,43.23
2017-11-25T05:43:22.890Z,40.60
2017-11-25T05:45:50.535Z,42.97
2017-11-25T05:48:18.111Z,41.70
2017-11-25T05:50:45.725Z,55.70
2017-11-25T05:53:14.094Z,47.20
2017-11-25T05:55:42.028Z,45.07
2017-11-25T05:58:09.593Z,43.20
2017-11-25T06:00:37.180Z,46.60
2017-11-25T06:03:05.568Z,40.10
2017-11-25T06:05:33.160Z,46.50
2017-11-25T06:08:01.146Z,44.13
2017-11-25T06:10:29.201Z,46.60
2017-11-25T06:12:56.778Z,44.97
2017-11-25T06:15:24.383Z,54.70
2017-11-25T06:17:52.727Z,54.10
2017-11-25T06:20:20.331Z,41.00
2017-11-25T06:22:48.676Z,52.43
2017-11-25T06:25:16.631Z,55.33
2017-11-25T06:27:44.197Z,53.27
2017-11-25T06:30:11.771Z,56.97
2017-11-25T06:32:39.396Z,47.10
2017-11-25T06:35:07.000Z,52.37
2017-11-25T06:37:34.686Z,45.23
2017-11-25T06:40:02.267Z,52.27
2017-11-25T06:42:30.252Z,46.27
2017-11-25T06:44:57.822Z,50.00
2017-11-25T06:47:25.402Z,42.20
2017-11-25T06:49:53.006Z,54.90
2017-11-25T06:52:20.581Z,49.50
2017-11-25T06:54:48.187Z,46.77
2017-11-25T06:57:15.783Z,49.27
2017-11-25T06:59:43.382Z,45.57
2017-11-25T07:02:10.951Z,44.60
2017-11-25T07:04:39.006Z,47.00
2017-11-25T07:07:06.580Z,45.33
2017-11-25T07:09:34.151Z,59.07
2017-11-25T07:12:01.755Z,50.27
2017-11-25T07:14:29.334Z,59.27
2017-11-25T07:16:56.960Z,56.17
2017-11-25T07:19:25.301Z,47.70
2017-11-25T07:21:53.258Z,51.53
2017-11-25T07:24:20.808Z,49.30
2017-11-25T07:26:48.386Z,67.23
2017-11-25T07:29:16.431Z,56.03
2017-11-25T07:31:44.015Z,62.37
2017-11-25T07:34:11.619Z,61.47
2017-11-25T07:36:39.987Z,57.20
2017-11-25T07:39:07.910Z,68.10
2017-11-25T07:41:35.482Z,57.70
2017-11-25T07:44:03.049Z,47.33
2017-11-25T07:46:30.658Z,51.00
2017-11-25T07:48:58.230Z,50.20
2017-11-25T07:51:25.847Z,51.60
2017-11-25T07:53:54.189Z,57.03
2017-11-25T07:56:21.800Z,50.07
2017-11-25T07:58:50.355Z,52.03
2017-11-25T08:01:18.002Z,49.43
2017-11-25T08:03:45.568Z,62.07
2017-11-25T08:06:13.623Z,235.30
2017-11-25T08:08:41.206Z,162.13
2017-11-25T08:11:08.780Z,99.43
2017-11-25T08:13:37.173Z,59.73
2017-11-25T08:16:04.755Z,52.17
2017-11-25T08:18:32.756Z,54.07
2017-11-25T08:21:00.392Z,55.30
2017-11-25T08:23:27.967Z,53.47
2017-11-25T08:25:55.596Z,50.27
2017-11-25T08:28:23.186Z,49.90
2017-11-25T08:30:51.244Z,48.20
2017-11-25T08:33:18.807Z,55.00
2017-11-25T08:35:46.387Z,51.20
2017-11-25T08:38:13.994Z,50.30
2017-11-25T08:40:41.571Z,53.40
2017-11-25T08:43:09.438Z,53.20
2017-11-25T08:45:37.026Z,64.33
2017-11-25T08:48:04.802Z,51.67
2017-11-25T08:50:32.414Z,51.70
2017-11-25T08:53:00.765Z,58.30
2017-11-25T08:55:28.647Z,51.13
2017-11-25T08:57:56.227Z,53.90
2017-11-25T09:00:24.237Z,56.10
2017-11-25T09:02:51.826Z,75.13
2017-11-25T09:05:19.409Z,67.10
2017-11-25T09:07:47.047Z,63.30
2017-11-25T09:10:15.411Z,57.80
2017-11-25T09:12:43.094Z,55.37
2017-11-25T09:15:10.706Z,52.77
2017-11-25T09:17:38.326Z,51.67
2017-11-25T09:20:06.667Z,56.70
2017-11-25T09:22:34.285Z,52.27
2017-11-25T09:25:01.855Z,55.30
2017-11-25T09:27:29.726Z,64.77
2017-11-25T09:29:57.394Z,52.10
2017-11-25T09:32:25.062Z,51.63
2017-11-25T09:34:52.691Z,90.57
2017-11-25T09:37:20.242Z,68.60
2017-11-25T09:39:47.858Z,85.03
2017-11-25T09:42:15.431Z,60.63
2017-11-25T09:44:44.246Z,54.07
2017-11-25T09:47:12.568Z,67.67
2017-11-25T09:49:40.154Z,59.57
2017-11-25T09:52:07.806Z,54.87
2017-11-25T09:54:35.383Z,60.27
2017-11-25T09:57:03.046Z,50.37
2017-11-25T09:59:30.622Z,59.90
2017-11-25T10:01:59.282Z,54.63
2017-11-25T10:04:27.641Z,61.17
2017-11-25T10:06:55.219Z,64.47
2017-11-25T10:09:22.847Z,67.80
2017-11-25T10:11:50.434Z,59.80
2017-11-25T10:14:18.840Z,77.47
2017-11-25T10:16:47.255Z,64.27
2017-11-25T10:19:15.430Z,46.60
2017-11-25T10:21:43.006Z,30.60
2017-11-25T10:24:10.709Z,46.53
2017-11-25T10:26:39.120Z,23.03
2017-11-25T10:29:06.835Z,8.13
2017-11-25T10:31:34.486Z,7.00
2017-11-25T10:34:02.058Z,9.43
2017-11-25T10:36:29.987Z,3.53
2017-11-25T10:38:57.590Z,4.43
2017-11-25T10:41:25.414Z,9.73
2017-11-25T10:43:53.269Z,2.20
2017-11-25T10:46:20.845Z,2.67
2017-11-25T10:48:48.531Z,2.00
2017-11-25T10:51:16.115Z,2.53
2017-11-25T10:53:44.047Z,2.97
2017-11-25T10:56:11.669Z,1.57
2017-11-25T10:58:39.262Z,2.93
2017-11-25T11:01:06.859Z,1.20
2017-11-25T11:03:34.467Z,1.20
2017-11-25T11:06:02.075Z,8.63
2017-11-25T11:08:29.690Z,1.03
2017-11-25T11:10:57.674Z,2.43
2017-11-25T11:13:25.249Z,3.83
2017-11-25T11:15:52.974Z,2.80
2017-11-25T11:18:20.580Z,1.57
2017-11-25T11:20:48.150Z,3.73
2017-11-25T11:23:15.771Z,1.57
2017-11-25T11:25:43.343Z,10.40
2017-11-25T11:28:11.321Z,0.90
2017-11-25T11:30:38.887Z,1.90
2017-11-25T11:33:06.471Z,1.10
2017-11-25T11:35:34.850Z,1.03
2017-11-25T11:38:02.548Z,1.43
2017-11-25T11:40:30.155Z,0.90
2017-11-25T11:42:58.623Z,2.83
2017-11-25T11:45:26.793Z,0.80
2017-11-25T11:47:54.456Z,1.10
2017-11-25T11:50:22.023Z,2.10
2017-11-25T11:52:51.142Z,0.70
2017-11-25T11:55:18.727Z,2.53
2017-11-25T11:57:46.343Z,0.97
2017-11-25T12:00:13.911Z,0.70
2017-11-25T12:02:41.869Z,0.90
2017-11-25T12:05:09.539Z,5.20
2017-11-25T12:07:37.115Z,2.30
2017-11-25T12:10:04.738Z,1.57
2017-11-25T12:12:32.313Z,1.30
2017-11-25T12:14:59.936Z,1.80
2017-11-25T12:17:27.515Z,2.23
2017-11-25T12:19:55.489Z,3.17
2017-11-25T12:22:23.055Z,0.90
2017-11-25T12:24:50.616Z,1.97
2017-11-25T12:27:18.315Z,1.70
2017-11-25T12:29:46.644Z,1.90
2017-11-25T12:32:14.357Z,5.57
2017-11-25T12:34:41.942Z,1.40
2017-11-25T12:37:09.900Z,1.53
2017-11-25T12:39:37.469Z,2.63
2017-11-25T12:42:05.040Z,3.17
2017-11-25T12:44:32.662Z,1.73
2017-11-25T12:47:00.241Z,1.60
2017-11-25T12:49:27.847Z,1.80
2017-11-25T12:51:55.427Z,1.37
2017-11-25T12:54:23.350Z,2.07
2017-11-25T12:56:50.920Z,2.73
2017-11-25T12:59:18.660Z,1.40
2017-11-25T13:01:46.345Z,1.20
2017-11-25T13:04:13.995Z,1.20
2017-11-25T13:06:41.595Z,1.33
2017-11-25T13:09:09.947Z,1.10
2017-11-25T13:11:38.072Z,1.53
2017-11-25T13:14:05.652Z,1.57
2017-11-25T13:16:33.226Z,1.80
2017-11-25T13:19:00.856Z,3.33
2017-11-25T13:21:28.443Z,3.20
2017-11-25T13:23:56.054Z,1.73
2017-11-25T13:26:23.637Z,1.37
2017-11-25T13:28:51.648Z,0.90
2017-11-25T13:31:19.247Z,1.63
2017-11-25T13:33:46.836Z,1.77
2017-11-25T13:36:14.472Z,1.90
2017-11-25T13:38:42.798Z,4.00
2017-11-25T13:41:10.571Z,4.37
2017-11-25T13:43:38.174Z,3.23
2017-11-25T13:46:06.639Z,4.20
2017-11-25T13:48:34.272Z,2.37
2017-11-25T13:51:01.827Z,1.93
2017-11-25T13:53:29.541Z,1.43
2017-11-25T13:55:57.127Z,4.07
2017-11-25T13:58:24.740Z,4.80
2017-11-25T14:00:52.321Z,4.00
2017-11-25T14:03:21.168Z,2.13
2017-11-25T14:05:48.839Z,2.37
2017-11-25T14:08:16.415Z,5.53
2017-11-25T14:10:44.010Z,1.40
2017-11-25T14:13:11.598Z,2.00
2017-11-25T14:15:39.232Z,1.00
2017-11-25T14:18:06.859Z,2.50
2017-11-25T14:20:34.800Z,1.87
2017-11-25T14:23:02.385Z,1.10
2017-11-25T14:25:29.954Z,1.87
2017-11-25T14:27:58.334Z,3.07
2017-11-25T14:30:25.927Z,0.83
2017-11-25T14:32:53.575Z,1.27
2017-11-25T14:35:21.147Z,1.60
2017-11-25T14:37:49.049Z,1.63
2017-11-25T14:40:16.619Z,1.50
2017-11-25T14:42:44.178Z,1.80
2017-11-25T14:45:11.803Z,1.73
2017-11-25T14:47:39.354Z,0.93
2017-11-25T14:50:06.966Z,1.10
2017-11-25T14:52:34.542Z,1.23
2017-11-25T14:55:02.467Z,3.47
2017-11-25T14:57:30.040Z,3.33
2017-11-25T14:59:57.649Z,3.20
2017-11-25T15:02:25.253Z,5.27
2017-11-25T15:04:52.854Z,6.37
2017-11-25T15:07:20.479Z,3.97
2017-11-25T15:09:48.067Z,4.77
2017-11-25T15:12:16.710Z,4.07
2017-11-25T15:14:44.286Z,4.50
2017-11-25T15:17:11.859Z,3.50
2017-11-25T15:19:40.260Z,3.30
2017-11-25T15:22:07.817Z,4.67
2017-11-25T15:24:36.662Z,5.40
2017-11-25T15:27:04.282Z,4.00
2017-11-25T15:29:31.858Z,24.73
2017-11-25T15:31:59.463Z,5.10
2017-11-25T15:34:27.074Z,6.07
2017-11-25T15:36:54.938Z,4.40
2017-11-25T15:39:22.515Z,15.40
2017-11-25T15:41:50.096Z,6.33
2017-11-25T15:44:17.714Z,2.20
2017-11-25T15:46:45.306Z,1.90
2017-11-25T15:49:13.258Z,1.97
2017-11-25T15:51:40.826Z,1.63
2017-11-25T15:54:08.383Z,4.17
2017-11-25T15:56:35.988Z,2.20
2017-11-25T15:59:03.567Z,3.80
2017-11-25T16:01:32.415Z,7.03
2017-11-25T16:04:00.019Z,6.23
2017-11-25T16:06:27.567Z,3.23
2017-11-25T16:08:55.956Z,4.57
2017-11-25T16:11:23.524Z,2.83
2017-11-25T16:13:51.533Z,2.93
2017-11-25T16:16:19.126Z,7.60
2017-11-25T16:18:46.669Z,4.97
2017-11-25T16:21:14.297Z,6.13
2017-11-25T16:23:41.942Z,4.20
2017-11-25T16:26:10.044Z,2.90
2017-11-25T16:28:37.622Z,1.70
2017-11-25T16:31:05.179Z,1.80
2017-11-25T16:33:32.926Z,2.20
2017-11-25T16:36:00.673Z,1.53
2017-11-25T16:38:28.562Z,1.33
2017-11-25T16:40:56.135Z,2.90
2017-11-25T16:43:23.687Z,1.23
2017-11-25T16:45:51.305Z,1.80
2017-11-25T16:48:18.877Z,1.50
2017-11-25T16:50:46.797Z,1.33
2017-11-25T16:53:14.363Z,1.70
2017-11-25T16:55:42.878Z,1.50
2017-11-25T16:58:10.558Z,1.57
2017-11-25T17:00:38.124Z,5.33
2017-11-25T17:03:05.999Z,1.40
2017-11-25T17:05:33.570Z,1.27
2017-11-25T17:08:01.138Z,2.07
2017-11-25T17:10:28.974Z,2.03
2017-11-25T17:12:56.534Z,2.40
2017-11-25T17:15:24.511Z,2.03
2017-11-25T17:17:52.126Z,2.60
2017-11-25T17:20:19.847Z,1.40
2017-11-25T17:22:47.477Z,1.43
2017-11-25T17:25:15.038Z,1.47
2017-11-25T17:27:43.231Z,3.50
2017-11-25T17:30:10.806Z,1.00
2017-11-25T17:32:39.889Z,2.63
2017-11-25T17:35:07.503Z,1.43
2017-11-25T17:37:35.090Z,1.57
2017-11-25T17:40:03.180Z,1.57
2017-11-25T17:42:30.768Z,0.90
2017-11-25T17:44:58.344Z,0.90
2017-11-25T17:47:26.724Z,2.07
2017-11-25T17:49:54.286Z,0.70
2017-11-25T17:52:22.938Z,1.40
2017-11-25T17:54:50.510Z,1.53
2017-11-25T17:57:19.590Z,1.60
2017-11-25T17:59:48.910Z,1.50
2017-11-25T18:02:16.489Z,2.97
2017-11-25T18:04:45.335Z,1.80
2017-11-25T18:07:12.901Z,1.40
2017-11-25T18:09:40.479Z,1.23
2017-11-25T18:12:08.207Z,1.00
2017-11-25T18:14:35.798Z,2.40
2017-11-25T18:17:03.848Z,1.20
2017-11-25T18:19:31.440Z,1.50
2017-11-25T18:21:59.008Z,1.80
2017-11-25T18:24:27.389Z,1.90
2017-11-25T18:26:54.950Z,1.13
2017-11-25T18:29:23.792Z,5.30
2017-11-25T18:31:51.369Z,2.03
2017-11-25T18:34:18.941Z,1.50
2017-11-25T18:36:47.327Z,2.20
2017-11-25T18:39:15.033Z,2.30
2017-11-25T18:41:42.911Z,1.90
2017-11-25T18:44:10.510Z,9.20
2017-11-25T18:46:38.097Z,2.63
2017-11-25T18:49:06.430Z,1.33
2017-11-25T18:51:34.014Z,3.73
2017-11-25T18:54:02.649Z,1.20
2017-11-25T18:56:30.231Z,1.73
2017-11-25T18:58:57.796Z,2.20
2017-11-25T19:01:25.408Z,1.03
2017-11-25T19:03:52.982Z,2.20
2017-11-25T19:06:20.602Z,1.70
2017-11-25T19:08:48.946Z,1.67
2017-11-25T19:11:16.905Z,2.23
2017-11-25T19:13:44.698Z,1.63
2017-11-25T19:16:13.039Z,3.60
2017-11-25T19:18:41.276Z,2.17
2017-11-25T19:21:09.032Z,2.07
2017-11-25T19:23:37.596Z,1.90
2017-11-25T19:26:05.193Z,2.03
2017-11-25T19:28:33.198Z,1.60
2017-11-25T19:31:00.784Z,4.30
2017-11-25T19:33:28.366Z,4.53
2017-11-25T19:35:56.977Z,1.83
2017-11-25T19:38:24.558Z,1.73
2017-11-25T19:40:52.178Z,2.10
2017-11-25T19:43:19.761Z,2.20
2017-11-25T19:45:47.659Z,2.40
2017-11-25T19:48:15.220Z,1.70
2017-11-25T19:50:42.787Z,2.63
2017-11-25T19:53:10.450Z,1.73
2017-11-25T19:55:38.022Z,3.23
2017-11-25T19:58:05.653Z,2.33
2017-11-25T20:00:33.231Z,4.63
2017-11-25T20:03:00.867Z,1.70
2017-11-25T20:05:28.517Z,2.37
2017-11-25T20:07:56.407Z,1.93
2017-11-25T20:10:24.007Z,2.40
2017-11-25T20:12:51.590Z,15.63
2017-11-25T20:15:19.262Z,5.30
2017-11-25T20:17:46.851Z,5.23
2017-11-25T20:20:14.484Z,3.67
2017-11-25T20:22:42.138Z,4.90
2017-11-25T20:25:09.978Z,4.33
2017-11-25T20:27:37.548Z,4.30
2017-11-25T20:30:05.144Z,4.63
2017-11-25T20:32:32.755Z,6.73
2017-11-25T20:35:00.314Z,7.03
2017-11-25T20:37:28.948Z,14.40
2017-11-25T20:39:56.523Z,5.10
2017-11-25T20:42:24.098Z,4.33
2017-11-25T20:44:51.718Z,4.27
2017-11-25T20:47:19.308Z,3.70
2017-11-25T20:49:47.270Z,2.70
2017-11-25T20:52:14.848Z,6.00
2017-11-25T20:54:42.447Z,2.70
2017-11-25T20:57:10.058Z,4.10
2017-11-25T20:59:37.619Z,5.87
2017-11-25T21:02:05.234Z,4.03
2017-11-25T21:04:32.849Z,14.57
2017-11-25T21:07:00.905Z,4.43
2017-11-25T21:09:28.487Z,4.17
2017-11-25T21:11:56.062Z,9.00
2017-11-25T21:14:24.491Z,6.10
2017-11-25T21:16:52.055Z,5.53
2017-11-25T21:19:20.685Z,2.10
2017-11-25T21:21:49.184Z,3.30
2017-11-25T21:24:17.407Z,7.93
2017-11-25T21:26:45.565Z,7.40
2017-11-25T21:29:13.126Z,10.27
2017-11-25T21:31:40.735Z,7.73
2017-11-25T21:34:08.320Z,10.07
2017-11-25T21:36:35.947Z,7.00
2017-11-25T21:39:04.245Z,3.40
2017-11-25T21:41:32.255Z,30.27
2017-11-25T21:43:59.819Z,16.77
2017-11-25T21:46:27.467Z,7.47
2017-11-25T21:48:55.097Z,11.13
2017-11-25T21:51:22.692Z,9.20
2017-11-25T21:53:50.299Z,8.80
2017-11-25T21:56:17.871Z,7.40
2017-11-25T21:58:45.929Z,8.53
2017-11-25T22:01:14.330Z,10.33
2017-11-25T22:03:41.896Z,11.07
2017-11-25T22:06:09.519Z,18.03
2017-11-25T22:08:37.084Z,9.40
2017-11-25T22:11:04.814Z,10.90
2017-11-25T22:13:32.402Z,9.00
2017-11-25T22:16:00.015Z,11.40
2017-11-25T22:18:27.620Z,7.97
2017-11-25T22:20:55.708Z,14.90
2017-11-25T22:23:24.066Z,12.33
2017-11-25T22:25:52.396Z,12.33
2017-11-25T22:28:20.037Z,11.10
2017-11-25T22:30:47.642Z,9.17
2017-11-25T22:33:15.250Z,14.40
2017-11-25T22:35:43.591Z,10.90
2017-11-25T22:38:11.541Z,9.90
2017-11-25T22:40:39.099Z,10.90
2017-11-25T22:43:06.675Z,11.00
2017-11-25T22:45:34.282Z,8.57
2017-11-25T22:48:01.852Z,11.63
2017-11-25T22:50:29.463Z,15.73
2017-11-25T22:52:57.028Z,15.93
2017-11-25T22:55:25.005Z,11.93
2017-11-25T22:57:52.602Z,12.60
2017-11-25T23:00:20.174Z,11.73
2017-11-25T23:02:47.792Z,11.20
2017-11-25T23:05:17.993Z,14.10
2017-11-25T23:07:45.626Z,13.30
2017-11-25T23:10:13.309Z,18.37
2017-11-25T23:12:41.262Z,12.27
2017-11-25T23:15:08.847Z,12.30
2017-11-25T23:17:38.070Z,11.90
2017-11-25T23:20:06.451Z,12.73
2017-11-25T23:22:34.018Z,12.33
2017-11-25T23:25:02.406Z,14.03
2017-11-25T23:27:29.996Z,10.80
2017-11-25T23:29:57.907Z,11.70
2017-11-25T23:32:26.601Z,15.77
2017-11-25T23:34:54.193Z,14.90
2017-11-25T23:37:21.816Z,11.43
2017-11-25T23:39:50.160Z,15.33
2017-11-25T23:42:17.771Z,14.10
2017-11-25T23:44:46.228Z,15.17
2017-11-25T23:47:14.263Z,10.20
2017-11-25T23:49:41.845Z,14.80
2017-11-25T23:52:09.406Z,13.17
2017-11-25T23:54:37.027Z,12.93
2017-11-25T23:57:04.591Z,10.27
2017-11-25T23:59:32.594Z,11.47
